RJSC Airport Information

Runway Information
Runway 01 Length 6560 ft width 150 ft Elevation 347 ft Threshold N/A Heading 7
Runway 19 Length 6560 ft Width 150 ft Elevation 353 ft Threshold N/A Heading 187
Airport Frequencies
Type ACC Name TOKYO CON Frequency 118.9 MHZ
Type RDO Name RDO Frequency 122.7 MHZ
Airport Navaids
Type VOR-DME Name Yamagata Frequency 113000 KHZ
Type VOR Name Zao-Yamada Frequency 110800 KHZ
Airport Weather Information & NOTAM
ADDS - METARS form results

(0118 UTC 07 February 2023)
Data provider http://aviationweather.gov/metar/data/
 
METAR text: RJSC 070100Z 35002KT 3500 BCFG BR FEW003 SCT005 BKN030 02/01 Q1022
Conditions at: RJSC (YAMAGATA(CIV/JGS, JP) observed 0100 UTC 07 February 2023
Temperature: 2.0°C (36°F)
Dewpoint: 1.0°C (34°F) [RH = 93%]
Pressure (altimeter): 30.18 inches Hg (1022.0 mb)
Winds: from the N (350 degrees) at 2 MPH (2 knots; 1.0 m/s)
Visibility: 2.17 miles (3.49 km)
Ceiling: 3000 feet AGL
Clouds: few clouds at 300 feet AGL
scattered clouds at 500 feet AGL
broken clouds at 3000 feet AGL
Weather: BCFG BR  (patches of fog, mist)